createdAt,value
2023-03-20T00:03:17.523Z,99269.81
2023-03-20T00:06:41.405Z,99262.33
2023-03-20T00:10:05.553Z,99260.91
2023-03-20T00:13:29.477Z,99262.88
2023-03-20T00:16:53.866Z,99262.88
2023-03-20T00:20:18.531Z,99265.77
2023-03-20T00:23:42.536Z,99259.77
2023-03-20T00:27:07.057Z,99257.61
2023-03-20T00:30:32.317Z,99258.04
2023-03-20T00:33:59.244Z,99255.95
2023-03-20T00:37:23.022Z,99251.08
2023-03-20T00:40:46.870Z,99251.34
2023-03-20T00:44:28.958Z,99249.98
2023-03-20T00:47:54.071Z,99249.84
2023-03-20T00:51:19.617Z,99252.21
2023-03-20T00:54:43.498Z,99252.61
2023-03-20T00:58:07.771Z,99251.98
2023-03-20T01:01:33.195Z,99251.72
2023-03-20T01:04:57.049Z,99249.42
2023-03-20T01:08:25.696Z,99245.20
2023-03-20T01:11:49.665Z,99247.29
2023-03-20T01:15:22.776Z,99246.86
2023-03-20T01:18:46.561Z,99244.48
2023-03-20T01:22:10.674Z,99248.66
2023-03-20T01:25:34.866Z,99250.11
2023-03-20T01:29:00.378Z,99247.84
2023-03-20T01:32:25.073Z,99251.50
2023-03-20T01:35:51.767Z,99247.66
2023-03-20T01:39:15.865Z,99247.61
2023-03-20T01:42:42.415Z,99247.13
2023-03-20T01:46:32.017Z,99241.55
2023-03-20T01:50:26.382Z,99245.71
2023-03-20T01:54:12.300Z,99243.26
2023-03-20T01:57:46.132Z,99239.29
2023-03-20T02:01:14.596Z,99238.16
2023-03-20T02:04:44.996Z,99237.17
2023-03-20T02:08:18.359Z,99239.72
2023-03-20T02:11:44.851Z,99233.65
2023-03-20T02:15:09.442Z,99232.98
2023-03-20T02:18:59.358Z,99233.07
2023-03-20T02:22:49.602Z,99229.02
2023-03-20T02:26:27.808Z,99228.16
2023-03-20T02:29:59.252Z,99230.40
2023-03-20T02:33:38.112Z,99229.66
2023-03-20T02:37:23.182Z,99230.33
2023-03-20T02:41:02.436Z,99227.64
2023-03-20T02:44:26.297Z,99222.13
2023-03-20T02:48:14.955Z,99222.30
2023-03-20T02:51:58.203Z,99217.60
2023-03-20T02:55:45.201Z,99222.88
2023-03-20T02:59:20.723Z,99224.42
2023-03-20T03:02:59.404Z,99226.87
2023-03-20T03:06:29.865Z,99223.54
2023-03-20T03:10:04.240Z,99220.89
2023-03-20T03:13:32.633Z,99216.69
2023-03-20T03:17:02.813Z,99215.26
2023-03-20T03:20:35.134Z,99213.70
2023-03-20T03:23:59.006Z,99208.14
2023-03-20T03:27:30.823Z,99206.47
2023-03-20T03:30:57.339Z,99209.85
2023-03-20T03:34:25.185Z,99206.86
2023-03-20T03:38:10.126Z,99201.22
2023-03-20T03:41:41.441Z,99198.37
2023-03-20T03:45:15.351Z,99204.09
2023-03-20T03:48:47.065Z,99205.40
2023-03-20T03:52:18.542Z,99205.66
2023-03-20T03:55:51.262Z,99201.79
2023-03-20T03:59:31.611Z,99205.26
2023-03-20T04:02:58.416Z,99207.03
2023-03-20T04:06:23.190Z,99200.66
2023-03-20T04:09:47.953Z,99205.60
2023-03-20T04:13:11.987Z,99206.02
2023-03-20T04:16:36.158Z,99206.98
2023-03-20T04:20:01.707Z,99206.30
2023-03-20T04:23:25.666Z,99204.00
2023-03-20T04:26:49.614Z,99202.00
2023-03-20T04:30:14.194Z,99204.89
2023-03-20T04:33:56.860Z,99209.98
2023-03-20T04:37:38.750Z,99210.33
2023-03-20T04:41:05.590Z,99213.23
2023-03-20T04:44:29.900Z,99211.35
2023-03-20T04:47:53.945Z,99208.14
2023-03-20T04:51:19.762Z,99207.60
2023-03-20T04:54:48.059Z,99208.92
2023-03-20T04:58:12.306Z,99210.82
2023-03-20T05:01:38.085Z,99213.02
2023-03-20T05:05:02.394Z,99215.36
2023-03-20T05:08:27.312Z,99218.59
2023-03-20T05:11:55.667Z,99217.92
2023-03-20T05:15:39.909Z,99221.91
2023-03-20T05:19:27.834Z,99222.27
2023-03-20T05:23:14.551Z,99219.69
2023-03-20T05:26:48.629Z,99215.98
2023-03-20T05:30:31.819Z,99216.25
2023-03-20T05:34:22.705Z,99216.77
2023-03-20T05:38:01.332Z,99217.31
2023-03-20T05:41:45.828Z,99220.44
2023-03-20T05:45:28.639Z,99222.10
2023-03-20T05:49:30.574Z,99220.45
2023-03-20T05:53:10.574Z,99218.73
2023-03-20T05:56:59.189Z,99219.98
2023-03-20T06:00:52.422Z,99216.60
2023-03-20T06:04:39.450Z,99224.11
2023-03-20T06:08:09.000Z,99220.46
2023-03-20T06:11:35.477Z,99221.41
2023-03-20T06:15:03.150Z,99221.11
2023-03-20T06:18:28.879Z,99223.10
2023-03-20T06:21:53.206Z,99221.03
2023-03-20T06:25:18.333Z,99220.77
2023-03-20T06:28:42.838Z,99222.46
2023-03-20T06:32:10.896Z,99225.23
2023-03-20T06:35:35.935Z,99226.70
2023-03-20T06:39:00.410Z,99225.62
2023-03-20T06:42:24.847Z,99223.27
2023-03-20T06:45:49.190Z,99224.50
2023-03-20T06:49:23.039Z,99224.22
2023-03-20T06:52:47.544Z,99219.07
2023-03-20T06:56:31.195Z,99216.92
2023-03-20T06:59:54.992Z,99225.45
2023-03-20T07:03:19.160Z,99224.23
2023-03-20T07:06:44.509Z,99225.71
2023-03-20T07:10:10.024Z,99225.32
2023-03-20T07:13:34.528Z,99228.64
2023-03-20T07:17:05.180Z,99221.67
2023-03-20T07:20:30.734Z,99221.10
2023-03-20T07:23:56.017Z,99223.45
2023-03-20T07:27:20.157Z,99221.35
2023-03-20T07:30:44.862Z,99222.23
2023-03-20T07:34:13.235Z,99217.46
2023-03-20T07:37:37.775Z,99216.09
2023-03-20T07:41:01.863Z,99211.45
2023-03-20T07:44:26.857Z,99212.38
2023-03-20T07:47:51.241Z,99208.47
2023-03-20T07:51:15.411Z,99206.11
2023-03-20T07:54:39.276Z,99204.56
2023-03-20T07:58:03.702Z,99199.84
2023-03-20T08:01:28.512Z,99199.58
2023-03-20T08:04:52.395Z,99200.80
2023-03-20T08:08:16.363Z,99200.84
2023-03-20T08:11:40.796Z,99199.86
2023-03-20T08:15:05.045Z,99201.98
2023-03-20T08:18:29.234Z,99202.73
2023-03-20T08:21:53.433Z,99200.45
2023-03-20T08:25:18.027Z,99200.80
2023-03-20T08:28:47.559Z,99202.61
2023-03-20T08:32:12.439Z,99201.45
2023-03-20T08:35:36.767Z,99205.20
2023-03-20T08:39:01.838Z,99206.81
2023-03-20T08:42:25.752Z,99207.05
2023-03-20T08:45:49.866Z,99216.09
2023-03-20T08:49:14.437Z,99216.73
2023-03-20T08:52:38.679Z,99212.55
2023-03-20T08:56:03.032Z,99216.54
2023-03-20T08:59:27.094Z,99219.40
2023-03-20T09:02:51.940Z,99223.27
2023-03-20T09:06:18.213Z,99219.45
2023-03-20T09:09:42.275Z,99218.15
2023-03-20T09:13:23.715Z,99221.63
2023-03-20T09:16:50.002Z,99219.23
2023-03-20T09:20:14.429Z,99218.21
2023-03-20T09:23:38.479Z,99223.61
2023-03-20T09:27:03.696Z,99222.34
2023-03-20T09:30:27.779Z,99222.72
2023-03-20T09:33:51.795Z,99218.23
2023-03-20T09:37:15.854Z,99218.13
2023-03-20T09:41:01.346Z,99215.07
2023-03-20T09:44:28.605Z,99212.39
2023-03-20T09:48:02.613Z,99207.52
2023-03-20T09:51:46.448Z,99207.92
2023-03-20T09:55:25.779Z,99207.87
2023-03-20T09:58:56.993Z,99203.80
2023-03-20T10:02:30.050Z,99200.33
2023-03-20T10:06:03.619Z,99201.36
2023-03-20T10:09:31.822Z,99200.98
2023-03-20T10:13:13.800Z,99194.75
2023-03-20T10:17:01.012Z,99193.41
2023-03-20T10:20:36.329Z,99194.92
2023-03-20T10:24:06.990Z,99194.39
2023-03-20T10:27:36.978Z,99190.30
2023-03-20T10:31:15.596Z,99187.81
2023-03-20T10:34:56.736Z,99184.72
2023-03-20T10:39:11.748Z,99181.65
2023-03-20T10:42:41.097Z,99178.30
2023-03-20T10:46:10.597Z,99174.70
2023-03-20T10:49:56.025Z,99171.39
2023-03-20T10:53:31.732Z,99167.42
2023-03-20T10:56:58.409Z,99169.66
2023-03-20T11:00:25.205Z,99171.66
2023-03-20T11:03:49.372Z,99168.84
2023-03-20T11:07:15.395Z,99170.25
2023-03-20T11:10:41.638Z,99165.16
2023-03-20T11:14:27.455Z,99160.64
2023-03-20T11:17:59.399Z,99155.08
2023-03-20T11:21:29.764Z,99154.91
2023-03-20T11:24:58.898Z,99148.56
2023-03-20T11:28:29.488Z,99145.72
2023-03-20T11:31:53.813Z,99147.79
2023-03-20T11:35:27.204Z,99143.55
2023-03-20T11:38:52.368Z,99145.89
2023-03-20T11:42:25.674Z,99146.68
2023-03-20T11:45:59.472Z,99141.83
2023-03-20T11:49:25.855Z,99141.05
2023-03-20T11:52:49.869Z,99134.56
2023-03-20T11:56:27.521Z,99127.20
2023-03-20T11:59:52.181Z,99122.84
2023-03-20T12:03:41.109Z,99127.77
2023-03-20T12:07:20.752Z,99123.48
2023-03-20T12:10:50.286Z,99112.32
2023-03-20T12:14:45.994Z,99116.14
2023-03-20T12:18:21.604Z,99116.30
2023-03-20T12:22:04.651Z,99111.02
2023-03-20T12:25:37.838Z,99109.13
2023-03-20T12:29:21.967Z,99108.66
2023-03-20T12:33:15.787Z,99112.35
2023-03-20T12:36:45.463Z,99105.39
2023-03-20T12:40:22.040Z,99106.35
2023-03-20T12:44:01.536Z,99106.98
2023-03-20T12:47:44.902Z,99108.59
2023-03-20T12:51:21.959Z,99107.25
2023-03-20T12:54:55.932Z,99107.09
2023-03-20T12:58:28.650Z,99107.52
2023-03-20T13:01:57.839Z,99099.58
2023-03-20T13:05:32.358Z,99099.02
2023-03-20T13:09:03.783Z,99100.88
2023-03-20T13:12:53.128Z,99100.14
2023-03-20T13:16:28.941Z,99097.33
2023-03-20T13:20:11.036Z,99097.89
2023-03-20T13:23:52.378Z,99093.52
2023-03-20T13:28:00.410Z,99091.11
2023-03-20T13:32:12.705Z,99088.46
2023-03-20T13:35:37.266Z,99086.70
2023-03-20T13:39:15.618Z,99083.11
2023-03-20T13:43:14.348Z,99085.54
2023-03-20T13:46:48.727Z,99082.91
2023-03-20T13:50:38.442Z,99080.45
2023-03-20T13:54:16.953Z,99076.19
2023-03-20T13:57:59.670Z,99078.76
2023-03-20T14:01:33.279Z,99081.93
2023-03-20T14:05:27.880Z,99080.48
2023-03-20T14:08:55.758Z,99082.20
2023-03-20T14:12:24.451Z,99089.77
2023-03-20T14:15:59.070Z,99093.41
2023-03-20T14:19:26.536Z,99098.95
2023-03-20T14:22:51.333Z,99096.14
2023-03-20T14:26:27.267Z,99095.38
2023-03-20T14:29:51.229Z,99103.05
2023-03-20T14:33:35.067Z,99101.05
2023-03-20T14:37:46.149Z,99101.15
2023-03-20T14:41:52.037Z,99100.98
2023-03-20T14:46:15.088Z,99100.50
2023-03-20T14:50:24.075Z,99105.53
2023-03-20T14:54:37.113Z,99104.44
2023-03-20T14:59:03.064Z,99102.52
2023-03-20T15:03:04.077Z,99106.16
2023-03-20T15:07:16.997Z,99107.73
2023-03-20T15:11:22.184Z,99108.03
2023-03-20T15:15:24.230Z,99110.48
2023-03-20T15:19:32.071Z,99110.65
2023-03-20T15:23:30.035Z,99114.42
2023-03-20T15:27:28.071Z,99114.85
2023-03-20T15:31:39.017Z,99116.57
2023-03-20T15:35:40.033Z,99118.77
2023-03-20T15:39:43.987Z,99119.88
2023-03-20T15:43:46.328Z,99121.48
2023-03-20T15:47:43.961Z,99121.98
2023-03-20T15:51:43.032Z,99125.75
2023-03-20T15:55:43.038Z,99131.55
2023-03-20T15:59:44.085Z,99130.44
2023-03-20T16:03:48.027Z,99133.18
2023-03-20T16:07:47.978Z,99134.08
2023-03-20T16:11:54.987Z,99140.01
2023-03-20T16:15:54.039Z,99140.66
2023-03-20T16:19:52.955Z,99142.00
2023-03-20T16:23:56.966Z,99141.55
2023-03-20T16:27:55.964Z,99141.38
2023-03-20T16:32:11.993Z,99143.80
2023-03-20T16:36:11.012Z,99142.73
2023-03-20T16:40:29.036Z,99143.30
2023-03-20T16:44:34.983Z,99146.42
2023-03-20T16:48:40.753Z,99147.85
2023-03-20T16:52:42.002Z,99147.98
2023-03-20T16:56:50.931Z,99146.77
2023-03-20T17:01:10.926Z,99149.13
2023-03-20T17:05:16.908Z,99151.00
2023-03-20T17:09:27.881Z,99150.91
2023-03-20T17:13:25.946Z,99149.58
2023-03-20T17:17:31.931Z,99152.77
2023-03-20T17:21:32.089Z,99151.41
2023-03-20T17:25:29.928Z,99149.31
2023-03-20T17:29:30.080Z,99151.38
2023-03-20T17:33:29.880Z,99148.71
2023-03-20T17:37:30.215Z,99148.81
2023-03-20T17:41:30.956Z,99154.31
2023-03-20T17:45:30.937Z,99152.72
2023-03-20T17:49:33.843Z,99143.09
2023-03-20T17:53:37.928Z,99146.42
2023-03-20T17:57:52.864Z,99150.36
2023-03-20T18:01:51.978Z,99143.96
2023-03-20T18:05:49.930Z,99142.31
2023-03-20T18:09:47.833Z,99140.73
2023-03-20T18:13:45.829Z,99134.52
2023-03-20T18:17:43.873Z,99132.52
2023-03-20T18:21:41.975Z,99126.78
2023-03-20T18:25:39.854Z,99123.75
2023-03-20T18:29:37.850Z,99119.90
2023-03-20T18:33:35.846Z,99116.65
2023-03-20T18:37:33.894Z,99114.68
2023-03-20T18:41:31.830Z,99113.55
2023-03-20T18:45:29.770Z,99112.17
2023-03-20T18:49:32.855Z,99111.59
2023-03-20T18:53:30.843Z,99112.96
2023-03-20T18:57:29.663Z,99118.37
2023-03-20T19:01:28.876Z,99114.83
2023-03-20T19:05:26.814Z,99114.20
2023-03-20T19:09:26.845Z,99113.60
2023-03-20T19:13:31.776Z,99116.18
2023-03-20T19:17:29.726Z,99119.48
2023-03-20T19:21:32.768Z,99119.67
2023-03-20T19:25:30.721Z,99117.54
2023-03-20T19:29:28.805Z,99121.03
2023-03-20T19:33:26.796Z,99119.18
2023-03-20T19:37:26.826Z,99118.27
2023-03-20T19:41:25.684Z,99119.80
2023-03-20T19:45:25.773Z,99118.16
2023-03-20T19:49:32.421Z,99121.65
2023-03-20T19:53:34.712Z,99122.41
2023-03-20T19:57:32.769Z,99125.48
2023-03-20T20:01:34.852Z,99125.48
2023-03-20T20:05:37.679Z,99128.44
2023-03-20T20:09:35.727Z,99126.30
2023-03-20T20:14:03.752Z,99120.59
2023-03-20T20:18:00.781Z,99120.81
2023-03-20T20:22:24.755Z,99115.73
2023-03-20T20:26:16.665Z,99117.02
2023-03-20T20:30:14.687Z,99120.61
2023-03-20T20:35:21.961Z,99123.02
2023-03-20T20:38:49.279Z,99124.20
2023-03-20T20:42:49.685Z,99120.31
2023-03-20T20:46:47.621Z,99114.11
2023-03-20T20:50:47.629Z,99122.10
2023-03-20T20:54:48.645Z,99125.27
2023-03-20T20:58:46.634Z,99124.54
2023-03-20T21:02:46.702Z,99117.56
2023-03-20T21:07:08.059Z,99117.23
2023-03-20T21:11:02.591Z,99119.91
2023-03-20T21:15:00.752Z,99121.45
2023-03-20T21:18:58.657Z,99117.94
2023-03-20T21:22:56.633Z,99120.51
2023-03-20T21:26:54.581Z,99119.02
2023-03-20T21:31:16.615Z,99118.56
2023-03-20T21:35:12.583Z,99113.69
2023-03-20T21:39:10.645Z,99113.23
2023-03-20T21:43:08.621Z,99117.17
2023-03-20T21:56:41.896Z,99113.32
2023-03-20T22:05:10.983Z,99113.65
2023-03-20T22:09:30.885Z,99109.53
2023-03-20T22:14:05.844Z,99110.67
2023-03-20T22:22:05.529Z,99110.30
2023-03-20T22:47:29.638Z,99116.64
2023-03-20T22:51:34.328Z,99115.38
2023-03-20T22:55:34.501Z,99117.24
2023-03-20T22:59:32.480Z,99116.46
2023-03-20T23:03:41.014Z,99118.85
2023-03-20T23:07:39.497Z,99116.52
2023-03-20T23:11:39.487Z,99118.73
2023-03-20T23:15:37.435Z,99118.58
2023-03-20T23:19:46.903Z,99118.42
2023-03-20T23:23:48.414Z,99119.30
2023-03-20T23:27:46.443Z,99118.88
2023-03-20T23:31:44.599Z,99121.34
2023-03-20T23:35:42.504Z,99122.11
2023-03-20T23:39:40.385Z,99122.23
2023-03-20T23:43:38.428Z,99114.27
2023-03-20T23:47:44.234Z,99114.89
2023-03-20T23:51:42.472Z,99113.17
2023-03-20T23:55:40.813Z,99111.55
2023-03-20T23:59:39.540Z,99106.34
